Time;durP1;ratioP1;P1;durP2;ratioP2;P2;SDS_P1;SDS_P2;PMS_P1;PMS_P2;Temp;Humidity;BMP_temperature;BMP_pressure;BME280_temperature;BME280_humidity;BME280_pressure;Samples;Min_cycle;Max_cycle;Signal;HPM_P1;HPM_P2
2023/09/22 00:00:44;;;;;;;;;;;;;;;14.30;75.91;98804.28;4996779;28;2507;-77
2023/09/22 00:03:36;;;;;;;;;;;;;;;14.30;75.70;98792.63;5003238;28;1478;-74
2023/09/22 00:06:28;;;;;;;;;;;;;;;14.30;75.87;98776.38;4996916;28;1719;-74
2023/09/22 00:09:20;;;;;;;;;;;;;;;14.30;75.72;98779.91;4996876;28;1956;-74
2023/09/22 00:12:12;;;;;;;;;;;;;;;14.30;75.73;98792.63;5006870;28;1960;-74
2023/09/22 00:15:04;;;;;;;;;;;;;;;14.29;75.62;98807.25;4994030;28;2127;-74
2023/09/22 00:17:56;;;;;;;;;;;;;;;14.29;75.65;98774.75;4994615;28;1644;-74
2023/09/22 00:20:48;;;;;;;;;;;;;;;14.28;75.75;98805.66;5004888;28;1062;-75
2023/09/22 00:23:40;;;;;;;;;;;;;;;14.29;75.67;98793.72;4998332;28;2139;-75
2023/09/22 00:26:32;;;;;;;;;;;;;;;14.29;75.75;98797.25;4987963;28;2089;-75
2023/09/22 00:29:24;;;;;;;;;;;;;;;14.29;75.53;98797.25;4974460;28;2654;-74
2023/09/22 00:32:16;;;;;;;;;;;;;;;14.29;75.75;98756.63;4974327;28;2445;-75
2023/09/22 00:35:10;;;;;;;;;;;;;;;14.28;75.58;98725.22;4974820;28;2659;-73
2023/09/22 00:38:02;;;;;;;;;;;;;;;14.28;75.62;98727.91;4976471;28;2176;-73
2023/09/22 00:40:54;;;;;;;;;;;;;;;14.28;75.52;98737.94;4977777;28;2316;-74
2023/09/22 00:43:46;;;;;;;;;;;;;;;14.29;75.44;98750.38;4977148;28;3560;-74
2023/09/22 00:46:38;;;;;;;;;;;;;;;14.28;75.45;98717.09;4981762;28;2777;-75
2023/09/22 00:49:31;;;;;;;;;;;;;;;14.27;75.40;98711.97;4973594;28;4117;-75
2023/09/22 00:52:23;;;;;;;;;;;;;;;14.27;75.30;98742.56;4974643;28;2222;-74
2023/09/22 00:55:14;;;;;;;;;;;;;;;14.28;75.26;98711.69;4997153;28;3861;-73
2023/09/22 00:58:06;;;;;;;;;;;;;;;14.26;75.48;98697.63;4992562;28;1796;-76
2023/09/22 01:00:58;;;;;;;;;;;;;;;14.27;75.42;98729.03;5001307;28;2099;-73
2023/09/22 01:03:51;;;;;;;;;;;;;;;14.28;75.24;98714.38;4991755;28;2230;-73
2023/09/22 01:06:42;;;;;;;;;;;;;;;14.27;75.23;98693.81;4975480;28;3365;-74
2023/09/22 01:09:34;;;;;;;;;;;;;;;14.26;75.10;98697.63;4974025;28;2713;-73
2023/09/22 01:12:26;;;;;;;;;;;;;;;14.27;75.06;98701.94;4980134;28;2386;-75
2023/09/22 01:15:19;;;;;;;;;;;;;;;14.26;75.16;98689.50;4972807;28;2258;-73
2023/09/22 01:18:13;;;;;;;;;;;;;;;14.26;75.20;98670.53;4978641;28;2674;-75
2023/09/22 01:21:04;;;;;;;;;;;;;;;14.26;75.27;98659.72;4977920;28;2665;-76
2023/09/22 01:23:57;;;;;;;;;;;;;;;14.25;75.25;98660.81;4973495;28;2224;-75
2023/09/22 01:26:49;;;;;;;;;;;;;;;14.26;75.11;98650.78;4972410;28;2253;-75
2023/09/22 01:29:41;;;;;;;;;;;;;;;14.26;75.10;98650.78;4981078;28;2662;-74
2023/09/22 01:32:37;;;;;;;;;;;;;;;14.27;75.09;98660.53;4974301;28;2713;-74
2023/09/22 01:35:28;;;;;;;;;;;;;;;14.26;75.08;98638.03;4972023;28;2876;-74
2023/09/22 01:38:23;;;;;;;;;;;;;;;14.25;75.04;98631.03;4972138;28;2115;-73
2023/09/22 01:41:15;;;;;;;;;;;;;;;14.26;75.16;98623.72;4974157;28;2216;-73
2023/09/22 01:44:07;;;;;;;;;;;;;;;14.25;75.16;98622.91;4982107;28;2195;-72
2023/09/22 01:46:58;;;;;;;;;;;;;;;14.25;75.00;98619.41;4971338;28;2341;-74
2023/09/22 01:49:51;;;;;;;;;;;;;;;14.25;75.17;98627.53;4980866;28;2657;-73
2023/09/22 01:52:43;;;;;;;;;;;;;;;14.25;74.98;98619.41;5005999;28;2134;-76
2023/09/22 01:55:35;;;;;;;;;;;;;;;14.24;74.95;98601.56;4974492;28;3353;-76
2023/09/22 01:58:27;;;;;;;;;;;;;;;14.24;75.16;98590.72;4996038;28;1879;-77
2023/09/22 02:01:20;;;;;;;;;;;;;;;14.24;75.00;98582.59;4997586;28;2459;-75
2023/09/22 02:04:11;;;;;;;;;;;;;;;14.25;75.01;98570.66;5000260;28;1748;-74
2023/09/22 02:07:05;;;;;;;;;;;;;;;14.23;74.99;98565.53;4998163;28;1762;-74
2023/09/22 02:09:56;;;;;;;;;;;;;;;14.23;75.06;98565.53;4997365;28;1917;-74
2023/09/22 02:12:48;;;;;;;;;;;;;;;14.24;75.11;98555.53;5003068;28;1907;-74
2023/09/22 02:15:40;;;;;;;;;;;;;;;14.23;74.92;98551.19;4988425;28;2004;-74
2023/09/22 02:18:32;;;;;;;;;;;;;;;14.23;75.10;98552.00;5000813;28;1754;-73
2023/09/22 02:21:23;;;;;;;;;;;;;;;14.22;75.08;98547.69;4998192;28;1750;-74
2023/09/22 02:24:15;;;;;;;;;;;;;;;14.22;74.99;98547.69;4999953;28;2430;-76
2023/09/22 02:27:07;;;;;;;;;;;;;;;14.23;75.10;98543.88;4994284;28;1667;-74
2023/09/22 02:29:59;;;;;;;;;;;;;;;14.23;75.03;98534.94;4996450;28;2202;-75
2023/09/22 02:32:51;;;;;;;;;;;;;;;14.23;75.01;98537.66;5001497;28;1999;-77
2023/09/22 02:35:43;;;;;;;;;;;;;;;14.23;74.88;98529.53;4994216;28;3591;-75
2023/09/22 02:38:35;;;;;;;;;;;;;;;14.23;75.07;98537.66;4995492;28;2017;-75
2023/09/22 02:41:27;;;;;;;;;;;;;;;14.22;74.87;98526.03;4974317;28;2639;-75
2023/09/22 02:44:19;;;;;;;;;;;;;;;14.22;75.04;98522.50;4971825;28;2187;-75
2023/09/22 02:47:12;;;;;;;;;;;;;;;14.21;75.06;98527.13;4988115;28;2331;-75
2023/09/22 02:50:04;;;;;;;;;;;;;;;14.21;74.80;98515.50;4973021;28;2223;-76
2023/09/22 02:52:55;;;;;;;;;;;;;;;14.22;74.86;98517.91;4974747;28;2266;-75
2023/09/22 02:55:47;;;;;;;;;;;;;;;14.22;74.83;98508.97;4978974;28;2213;-76
2023/09/22 02:58:39;;;;;;;;;;;;;;;14.21;74.98;98502.75;4973161;28;2257;-74
2023/09/22 03:01:33;;;;;;;;;;;;;;;14.21;74.78;98489.22;4987947;28;2202;-76
2023/09/22 03:04:24;;;;;;;;;;;;;;;14.22;75.05;98508.97;4979831;28;2239;-74
2023/09/22 03:07:16;;;;;;;;;;;;;;;14.21;74.78;98523.63;4987253;28;2215;-74
2023/09/22 03:10:10;;;;;;;;;;;;;;;14.20;74.85;98517.38;4974972;28;2299;-75
2023/09/22 03:13:01;;;;;;;;;;;;;;;14.20;75.00;98473.25;4980717;28;2653;-75
2023/09/22 03:15:53;;;;;;;;;;;;;;;14.21;74.98;98534.44;4980228;28;2372;-76
2023/09/22 03:18:47;;;;;;;;;;;;;;;14.21;74.98;98537.16;4976248;28;4642;-74
2023/09/22 03:21:38;;;;;;;;;;;;;;;14.19;75.00;98534.72;4977043;28;3056;-77
2023/09/22 03:24:31;;;;;;;;;;;;;;;14.20;74.93;98547.16;4975053;28;3456;-78
2023/09/22 03:27:23;;;;;;;;;;;;;;;14.20;74.81;98557.19;4978224;28;2626;-76
2023/09/22 03:30:16;;;;;;;;;;;;;;;14.19;75.02;98559.09;4978315;28;2425;-76
2023/09/22 03:33:08;;;;;;;;;;;;;;;14.19;74.90;98564.50;4980934;28;2709;-76
2023/09/22 03:36:01;;;;;;;;;;;;;;;14.20;74.83;98570.72;4975113;28;3242;-77
2023/09/22 03:38:52;;;;;;;;;;;;;;;14.20;74.84;98558.00;4977856;28;2332;-76
2023/09/22 03:41:44;;;;;;;;;;;;;;;14.20;74.97;98562.59;4975471;28;2694;-75
2023/09/22 03:44:37;;;;;;;;;;;;;;;14.20;74.92;98570.72;4978727;28;2709;-75
2023/09/22 03:47:29;;;;;;;;;;;;;;;14.20;74.82;98570.72;4995678;28;2234;-74
2023/09/22 03:50:20;;;;;;;;;;;;;;;14.18;74.80;98565.63;4983937;28;2293;-75
2023/09/22 03:53:12;;;;;;;;;;;;;;;14.19;74.73;98563.72;4983420;28;2267;-77
2023/09/22 03:56:06;;;;;;;;;;;;;;;14.19;74.78;98559.09;4994413;28;2107;-75
2023/09/22 03:58:59;;;;;;;;;;;;;;;14.18;74.87;98568.31;5003299;28;2180;-75
2023/09/22 04:01:51;;;;;;;;;;;;;;;14.19;74.92;98550.19;5005962;28;2154;-76
2023/09/22 04:04:42;;;;;;;;;;;;;;;14.18;74.77;98554.00;5000844;28;1637;-74
2023/09/22 04:07:35;;;;;;;;;;;;;;;14.17;74.79;98545.03;5002363;28;2157;-75
2023/09/22 04:10:27;;;;;;;;;;;;;;;14.18;74.94;98559.41;5001465;28;2625;-75
2023/09/22 04:13:19;;;;;;;;;;;;;;;14.18;74.74;98548.56;5004670;28;1965;-74
2023/09/22 04:16:10;;;;;;;;;;;;;;;14.17;74.90;98542.34;4997484;28;1949;-73
2023/09/22 04:19:03;;;;;;;;;;;;;;;14.18;74.75;98543.16;5006941;28;2126;-73
2023/09/22 04:21:56;;;;;;;;;;;;;;;14.16;74.95;98527.19;5008850;28;1006;-75
2023/09/22 04:24:50;;;;;;;;;;;;;;;14.16;74.93;98513.66;4993133;28;4696;-74
2023/09/22 04:27:46;;;;;;;;;;;;;;;14.16;74.76;98504.75;5001730;28;3581;-74
2023/09/22 04:30:37;;;;;;;;;;;;;;;14.15;74.81;98522.88;5002592;28;3365;-73
2023/09/22 04:33:29;;;;;;;;;;;;;;;14.15;74.76;98539.13;4999968;28;2040;-74
2023/09/22 04:36:21;;;;;;;;;;;;;;;14.16;74.75;98545.34;5000559;28;3818;-74
2023/09/22 04:39:14;;;;;;;;;;;;;;;14.15;74.80;98539.13;4994585;28;2300;-74
2023/09/22 04:42:05;;;;;;;;;;;;;;;14.16;74.76;98534.50;5001860;28;2099;-74
2023/09/22 04:44:59;;;;;;;;;;;;;;;14.15;74.71;98536.44;4985947;28;2510;-74
2023/09/22 04:47:52;;;;;;;;;;;;;;;14.15;74.70;98522.06;4976576;28;2178;-75
2023/09/22 04:50:44;;;;;;;;;;;;;;;14.15;74.68;98532.88;4983157;28;2213;-75
2023/09/22 04:53:36;;;;;;;;;;;;;;;14.15;74.82;98544.53;4978563;28;2358;-75
2023/09/22 04:56:28;;;;;;;;;;;;;;;14.15;74.85;98543.72;4978831;28;2429;-75
2023/09/22 04:59:20;;;;;;;;;;;;;;;14.14;74.85;98542.13;5000274;28;2179;-74
2023/09/22 05:02:12;;;;;;;;;;;;;;;14.12;74.71;98542.41;4996872;28;2192;-75
2023/09/22 05:05:04;;;;;;;;;;;;;;;14.14;74.92;98542.13;4991605;28;2099;-76
2023/09/22 05:07:56;;;;;;;;;;;;;;;14.14;74.70;98547.53;4970310;28;2437;-75
2023/09/22 05:10:48;;;;;;;;;;;;;;;14.13;74.74;98557.56;4970635;28;2154;-76
2023/09/22 05:13:40;;;;;;;;;;;;;;;14.13;74.83;98552.16;4972460;28;2160;-74
2023/09/22 05:16:31;;;;;;;;;;;;;;;14.14;74.70;98555.66;4989319;28;2475;-75
2023/09/22 05:19:24;;;;;;;;;;;;;;;14.11;74.93;98542.69;4999272;28;2078;-75
2023/09/22 05:22:17;;;;;;;;;;;;;;;14.12;74.87;98542.41;4996303;28;1805;-75
2023/09/22 05:25:09;;;;;;;;;;;;;;;14.11;74.71;98529.97;4985727;28;2279;-74
2023/09/22 05:28:02;;;;;;;;;;;;;;;14.12;74.79;98549.72;5000466;28;1875;-75
2023/09/22 05:30:53;;;;;;;;;;;;;;;14.10;74.68;98544.59;4989081;28;3125;-76
2023/09/22 05:33:45;;;;;;;;;;;;;;;14.10;74.87;98539.19;4997958;28;1906;-78
2023/09/22 05:36:37;;;;;;;;;;;;;;;14.09;74.88;98535.69;5001908;28;1781;-76
2023/09/22 05:39:29;;;;;;;;;;;;;;;14.10;74.94;98539.19;4999869;28;1653;-77
2023/09/22 05:42:20;;;;;;;;;;;;;;;14.10;74.68;98539.19;4994940;28;2138;-75
2023/09/22 05:45:13;;;;;;;;;;;;;;;14.09;74.66;98551.13;4996282;28;2072;-74
2023/09/22 05:48:05;;;;;;;;;;;;;;;14.09;74.86;98543.00;4993425;28;2085;-75
2023/09/22 05:50:57;;;;;;;;;;;;;;;14.09;74.67;98559.25;4997149;28;2028;-76
2023/09/22 05:53:51;;;;;;;;;;;;;;;14.08;74.81;98553.00;5000512;28;1903;-74
2023/09/22 05:56:42;;;;;;;;;;;;;;;14.07;74.67;98548.69;4991601;28;2359;-76
2023/09/22 05:59:37;;;;;;;;;;;;;;;14.08;74.90;98544.09;4998243;28;1650;-75
2023/09/22 06:02:29;;;;;;;;;;;;;;;14.07;74.83;98551.41;4988389;28;3343;-75
2023/09/22 06:05:20;;;;;;;;;;;;;;;14.08;74.86;98558.41;4993852;28;2112;-73
2023/09/22 06:08:12;;;;;;;;;;;;;;;14.06;74.80;98555.22;4999056;28;2141;-74
2023/09/22 06:11:04;;;;;;;;;;;;;;;14.07;74.89;98534.38;5008209;28;1955;-74
2023/09/22 06:13:57;;;;;;;;;;;;;;;14.06;74.69;98554.41;4993699;28;4542;-75
2023/09/22 06:16:49;;;;;;;;;;;;;;;14.06;74.81;98581.47;4995778;28;2088;-75
2023/09/22 06:19:41;;;;;;;;;;;;;;;14.06;74.79;98597.72;4994185;28;1867;-76
2023/09/22 06:22:33;;;;;;;;;;;;;;;14.05;74.81;98591.47;5001690;28;2237;-75
2023/09/22 06:25:24;;;;;;;;;;;;;;;14.05;74.71;98606.91;4997647;28;2229;-75
2023/09/22 06:28:18;;;;;;;;;;;;;;;14.05;74.59;98591.47;4990369;28;2473;-76
2023/09/22 06:31:10;;;;;;;;;;;;;;;14.05;74.78;98577.16;4998910;28;2171;-76
2023/09/22 06:34:02;;;;;;;;;;;;;;;14.04;74.60;98567.44;5000436;28;2308;-76
2023/09/22 06:36:53;;;;;;;;;;;;;;;14.03;74.61;98553.09;4996896;28;2324;-75
2023/09/22 06:39:44;;;;;;;;;;;;;;;14.04;74.63;98553.91;4998765;28;1070;-76
2023/09/22 06:42:36;;;;;;;;;;;;;;;14.04;74.59;98567.44;4998618;28;2308;-75
2023/09/22 06:45:27;;;;;;;;;;;;;;;14.04;74.80;98608.03;4988336;28;5232;-75
2023/09/22 06:48:22;;;;;;;;;;;;;;;14.04;74.70;98621.56;4991076;28;4016;-75
2023/09/22 06:51:14;;;;;;;;;;;;;;;14.03;74.76;98626.16;4992288;28;3194;-75
2023/09/22 06:54:09;;;;;;;;;;;;;;;14.04;74.54;98624.25;4997300;28;2051;-74
2023/09/22 06:57:02;;;;;;;;;;;;;;;14.02;74.60;98627.25;5000704;28;1736;-75
2023/09/22 06:59:54;;;;;;;;;;;;;;;14.02;74.58;98619.13;4999333;28;2218;-75
2023/09/22 07:02:47;;;;;;;;;;;;;;;14.02;74.79;98618.31;4994780;28;2250;-75
2023/09/22 07:05:39;;;;;;;;;;;;;;;14.01;74.61;98604.00;4994847;28;2136;-76
2023/09/22 07:08:30;;;;;;;;;;;;;;;14.02;74.69;98607.50;5002661;28;1756;-75
2023/09/22 07:11:23;;;;;;;;;;;;;;;14.01;74.79;98595.06;4995187;28;1886;-74
2023/09/22 07:14:15;;;;;;;;;;;;;;;14.01;74.68;98595.88;4993676;28;2118;-77
2023/09/22 07:17:07;;;;;;;;;;;;;;;14.01;74.53;98585.03;4992806;28;1956;-75
2023/09/22 07:20:00;;;;;;;;;;;;;;;14.01;74.70;98581.53;4971624;28;2421;-76
2023/09/22 07:22:52;;;;;;;;;;;;;;;14.01;74.49;98581.53;4967881;28;2170;-76
2023/09/22 07:25:44;;;;;;;;;;;;;;;14.01;74.55;98578.84;4970543;28;2366;-76
2023/09/22 07:28:36;;;;;;;;;;;;;;;14.00;74.49;98583.44;4969878;28;2726;-76
2023/09/22 07:31:30;;;;;;;;;;;;;;;13.99;74.72;98592.63;4971254;28;2570;-75
2023/09/22 07:34:21;;;;;;;;;;;;;;;14.00;74.63;98612.38;4971047;28;2243;-75
2023/09/22 07:37:13;;;;;;;;;;;;;;;14.00;74.53;98620.50;4969780;28;2143;-76
2023/09/22 07:40:08;;;;;;;;;;;;;;;13.99;74.49;98625.13;4970425;28;2145;-75
2023/09/22 07:43:00;;;;;;;;;;;;;;;13.99;74.67;98625.13;4972488;28;2416;-76
2023/09/22 07:45:51;;;;;;;;;;;;;;;13.99;74.49;98635.94;4968377;28;2230;-76
2023/09/22 07:48:45;;;;;;;;;;;;;;;13.98;74.60;98637.03;4972248;28;2422;-76
2023/09/22 07:51:36;;;;;;;;;;;;;;;13.98;74.64;98639.75;4974644;28;2433;-76
2023/09/22 07:54:28;;;;;;;;;;;;;;;13.98;74.45;98639.75;4964393;28;3750;-76
2023/09/22 07:57:19;;;;;;;;;;;;;;;13.98;74.30;98647.88;4972699;28;2331;-75
2023/09/22 08:00:11;;;;;;;;;;;;;;;13.98;74.48;98638.94;4978261;28;2392;-76
2023/09/22 08:03:04;;;;;;;;;;;;;;;13.98;74.57;98638.94;4974952;28;2442;-74
2023/09/22 08:05:55;;;;;;;;;;;;;;;13.98;74.59;98644.38;4979089;28;2265;-75
2023/09/22 08:08:49;;;;;;;;;;;;;;;13.97;74.59;98640.03;4970828;28;2344;-75
2023/09/22 08:11:40;;;;;;;;;;;;;;;13.97;74.54;98638.16;4975178;28;2475;-75
2023/09/22 08:14:31;;;;;;;;;;;;;;;13.96;74.58;98635.72;4974697;28;2454;-76
2023/09/22 08:17:23;;;;;;;;;;;;;;;13.97;74.54;98632.75;4973756;28;2518;-75
2023/09/22 08:20:15;;;;;;;;;;;;;;;13.86;77.25;98623.91;4991964;28;2540;-72
2023/09/22 08:23:06;;;;;;;;;;;;;;;13.94;75.83;98619.78;4996498;28;2206;-73
2023/09/22 08:25:58;;;;;;;;;;;;;;;13.97;75.07;98599.44;4992363;28;2258;-74
2023/09/22 08:28:51;;;;;;;;;;;;;;;13.98;75.00;98596.44;4977754;28;2472;-73
2023/09/22 08:31:42;;;;;;;;;;;;;;;13.99;75.16;98599.97;4998723;28;2860;-74
2023/09/22 08:34:34;;;;;;;;;;;;;;;13.98;75.10;98592.94;4989461;28;2864;-73
2023/09/22 08:37:25;;;;;;;;;;;;;;;13.99;74.90;98586.44;4972484;28;2839;-73
2023/09/22 08:40:18;;;;;;;;;;;;;;;13.97;74.74;98586.72;4978065;28;2392;-73
2023/09/22 08:43:10;;;;;;;;;;;;;;;13.98;74.93;98587.53;4973720;28;3850;-73
2023/09/22 08:46:02;;;;;;;;;;;;;;;13.95;74.85;98588.91;4973212;28;2359;-74
2023/09/22 08:48:54;;;;;;;;;;;;;;;13.97;74.69;98575.91;4975020;28;2325;-73
2023/09/22 08:51:45;;;;;;;;;;;;;;;13.97;74.87;98558.84;4970701;28;2480;-74
2023/09/22 08:54:37;;;;;;;;;;;;;;;13.95;74.86;98556.44;4975002;28;2568;-75
2023/09/22 08:57:29;;;;;;;;;;;;;;;13.96;74.66;98557.25;4972552;28;2648;-76
2023/09/22 09:00:20;;;;;;;;;;;;;;;13.96;74.59;98554.53;4996711;28;2579;-73
2023/09/22 09:03:12;;;;;;;;;;;;;;;13.94;74.69;98562.97;4997225;28;2056;-74
2023/09/22 09:06:03;;;;;;;;;;;;;;;13.95;74.53;98574.59;5002536;28;2146;-74
2023/09/22 09:08:54;;;;;;;;;;;;;;;13.94;74.67;98559.41;4977445;28;2391;-74
2023/09/22 09:11:47;;;;;;;;;;;;;;;13.93;74.72;98565.94;4978215;28;2455;-74
2023/09/22 09:14:39;;;;;;;;;;;;;;;13.95;74.66;98580.00;4971872;28;2277;-74
2023/09/22 09:17:31;;;;;;;;;;;;;;;13.92;74.68;98581.38;4971563;28;2454;-74
2023/09/22 09:20:23;;;;;;;;;;;;;;;13.93;74.74;98593.00;4969963;28;2768;-74
2023/09/22 09:23:15;;;;;;;;;;;;;;;13.93;74.50;98611.94;4974040;28;2253;-74
2023/09/22 09:26:06;;;;;;;;;;;;;;;13.92;74.43;98602.22;4967301;28;2396;-75
2023/09/22 09:28:58;;;;;;;;;;;;;;;13.93;74.66;98614.66;4971332;28;2335;-75
2023/09/22 09:31:51;;;;;;;;;;;;;;;13.91;74.71;98623.03;4971287;28;2296;-74
2023/09/22 09:34:42;;;;;;;;;;;;;;;13.91;74.51;98624.94;4972810;28;2456;-74
2023/09/22 09:37:35;;;;;;;;;;;;;;;13.89;74.48;98630.66;4974938;28;5179;-74
2023/09/22 09:40:27;;;;;;;;;;;;;;;13.89;74.68;98630.66;4999728;28;5332;-73
2023/09/22 09:43:19;;;;;;;;;;;;;;;13.89;74.58;98633.38;4979104;28;2607;-75
2023/09/22 09:46:10;;;;;;;;;;;;;;;13.90;74.48;98639.59;4992560;28;2158;-74
2023/09/22 09:49:02;;;;;;;;;;;;;;;13.90;74.58;98636.88;4991489;28;2343;-74
2023/09/22 09:51:54;;;;;;;;;;;;;;;13.91;74.49;98627.66;4991805;28;2160;-74
2023/09/22 09:54:47;;;;;;;;;;;;;;;13.90;74.59;98636.88;4994143;28;2157;-74
2023/09/22 09:57:39;;;;;;;;;;;;;;;13.88;74.62;98633.63;4980078;28;2842;-75
2023/09/22 10:00:35;;;;;;;;;;;;;;;13.88;74.42;98628.22;4972484;28;2859;-74
2023/09/22 10:03:26;;;;;;;;;;;;;;;13.88;74.47;98639.06;4993126;28;2848;-74
2023/09/22 10:06:20;;;;;;;;;;;;;;;13.86;74.66;98632.03;4998019;28;2481;-74
2023/09/22 10:09:12;;;;;;;;;;;;;;;13.86;74.53;98634.75;4998077;28;2808;-74
2023/09/22 10:12:06;;;;;;;;;;;;;;;13.87;74.44;98632.84;5000740;28;2391;-73
2023/09/22 10:15:01;;;;;;;;;;;;;;;13.86;74.67;98634.75;4991101;28;2383;-74
2023/09/22 10:17:52;;;;;;;;;;;;;;;13.86;74.60;98642.88;4997668;28;2989;-74
2023/09/22 10:20:45;;;;;;;;;;;;;;;13.85;74.53;98646.66;4995175;28;2670;-74
2023/09/22 10:23:37;;;;;;;;;;;;;;;13.86;74.59;98642.06;4998913;28;2287;-74
2023/09/22 10:26:29;;;;;;;;;;;;;;;13.85;74.54;98629.59;4996238;28;2099;-74
2023/09/22 10:29:20;;;;;;;;;;;;;;;13.85;74.55;98637.72;4996526;28;1538;-74
2023/09/22 10:32:12;;;;;;;;;;;;;;;13.85;74.41;98626.91;4991934;28;2173;-73
2023/09/22 10:35:05;;;;;;;;;;;;;;;13.85;74.53;98641.25;4992276;28;2372;-74
2023/09/22 10:37:57;;;;;;;;;;;;;;;13.85;74.52;98652.09;4997281;28;2241;-74
2023/09/22 10:40:49;;;;;;;;;;;;;;;13.85;74.52;98654.78;4995651;28;2315;-76
2023/09/22 10:43:40;;;;;;;;;;;;;;;13.84;74.45;98666.69;5004534;28;1115;-73
2023/09/22 10:46:32;;;;;;;;;;;;;;;13.84;74.54;98663.97;4984765;28;2320;-75
2023/09/22 10:49:23;;;;;;;;;;;;;;;13.84;74.43;98658.56;4979097;28;2652;-75
2023/09/22 10:52:17;;;;;;;;;;;;;;;13.85;74.36;98648.53;4971861;28;2516;-76
2023/09/22 10:55:09;;;;;;;;;;;;;;;13.84;74.57;98644.25;4970637;28;2396;-76
2023/09/22 10:58:01;;;;;;;;;;;;;;;13.83;74.40;98648.84;4967469;28;3528;-76
2023/09/22 11:00:53;;;;;;;;;;;;;;;13.83;74.57;98654.25;4970981;28;2919;-76
2023/09/22 11:03:46;;;;;;;;;;;;;;;13.84;74.39;98660.47;4975610;28;2305;-75
2023/09/22 11:06:37;;;;;;;;;;;;;;;13.84;74.54;98665.88;4971766;28;2307;-76
2023/09/22 11:09:29;;;;;;;;;;;;;;;13.84;74.61;98661.28;4972579;28;2301;-75
2023/09/22 11:12:21;;;;;;;;;;;;;;;13.84;74.68;98660.47;4971848;28;2289;-76
2023/09/22 11:15:13;;;;;;;;;;;;;;;13.85;74.51;98664.78;4972105;28;2254;-76
2023/09/22 11:18:05;;;;;;;;;;;;;;;13.84;74.60;98660.47;4975447;28;2775;-75
2023/09/22 11:20:57;;;;;;;;;;;;;;;13.85;74.62;98664.78;4971340;28;2641;-75
2023/09/22 11:23:51;;;;;;;;;;;;;;;13.84;74.59;98663.19;4975237;28;2390;-76
2023/09/22 11:26:42;;;;;;;;;;;;;;;13.84;74.44;98674.81;4970170;28;3854;-75
2023/09/22 11:29:34;;;;;;;;;;;;;;;13.83;74.39;98689.44;4974645;28;2370;-76
2023/09/22 11:32:26;;;;;;;;;;;;;;;13.84;74.69;98693.75;4975628;28;2810;-75
2023/09/22 11:35:17;;;;;;;;;;;;;;;13.85;74.63;98698.09;4977151;28;2254;-75
2023/09/22 11:38:09;;;;;;;;;;;;;;;13.85;74.57;98703.50;4975072;28;2744;-76
2023/09/22 11:41:01;;;;;;;;;;;;;;;13.84;74.73;98693.75;4997128;28;4332;-76
2023/09/22 11:43:54;;;;;;;;;;;;;;;13.86;74.64;98686.16;4981955;28;4244;-74
2023/09/22 11:46:46;;;;;;;;;;;;;;;13.85;74.44;98694.53;4986471;28;2286;-75
2023/09/22 11:49:38;;;;;;;;;;;;;;;13.86;74.73;98699.69;4997518;28;2388;-76
2023/09/22 11:52:30;;;;;;;;;;;;;;;13.86;74.45;98699.69;4996635;28;2130;-76
2023/09/22 11:55:22;;;;;;;;;;;;;;;13.49;74.62;98640.00;5008389;28;2087;-76
2023/09/22 11:58:15;;;;;;;;;;;;;;;13.85;74.66;98692.66;4989690;28;2531;-76
2023/09/22 12:01:09;;;;;;;;;;;;;;;13.87;74.64;98714.00;4981684;28;3722;-75
2023/09/22 12:04:01;;;;;;;;;;;;;;;13.88;74.57;98725.66;4976714;28;2282;-75
2023/09/22 12:06:53;;;;;;;;;;;;;;;13.88;74.67;98722.94;4981370;28;2542;-76
2023/09/22 12:09:45;;;;;;;;;;;;;;;13.88;74.45;98722.94;4974318;28;2483;-75
2023/09/22 12:12:37;;;;;;;;;;;;;;;13.88;74.49;98729.16;4986179;28;2471;-75
2023/09/22 12:15:29;;;;;;;;;;;;;;;13.88;74.66;98721.03;4974500;28;2285;-75
2023/09/22 12:18:21;;;;;;;;;;;;;;;13.89;74.58;98722.66;4973766;28;3551;-74
2023/09/22 12:21:13;;;;;;;;;;;;;;;13.89;74.61;98725.38;4974385;28;2639;-74
2023/09/22 12:24:05;;;;;;;;;;;;;;;13.89;74.51;98727.28;4982154;28;2116;-75
2023/09/22 12:26:57;;;;;;;;;;;;;;;13.91;75.07;98725.88;5001431;28;2238;-73
2023/09/22 12:29:49;;;;;;;;;;;;;;;13.95;75.02;98724.22;5004107;28;1653;-74
2023/09/22 12:32:41;;;;;;;;;;;;;;;13.92;75.16;98724.78;5003892;28;1742;-74
2023/09/22 12:35:33;;;;;;;;;;;;;;;13.91;75.07;98731.28;4992362;28;3519;-73
2023/09/22 12:38:24;;;;;;;;;;;;;;;13.92;75.06;98724.00;4995304;28;2099;-74
2023/09/22 12:41:17;;;;;;;;;;;;;;;13.93;75.18;98725.59;5000016;28;2052;-73
2023/09/22 12:44:09;;;;;;;;;;;;;;;13.93;74.81;98718.28;4995719;28;2356;-74
2023/09/22 12:47:01;;;;;;;;;;;;;;;13.92;74.87;98710.47;4993756;28;2011;-73
2023/09/22 12:49:53;;;;;;;;;;;;;;;13.94;75.04;98721.78;5003308;28;1777;-76
2023/09/22 12:52:45;;;;;;;;;;;;;;;14.08;73.56;98715.41;4999973;28;2382;-78
2023/09/22 12:55:37;;;;;;;;;;;;;;;14.22;74.79;98730.97;4993141;28;2148;-78
2023/09/22 12:58:29;;;;;;;;;;;;;;;14.37;74.28;98719.97;4981259;28;2242;-77
2023/09/22 13:01:21;;;;;;;;;;;;;;;14.44;73.42;98715.03;4971747;28;2226;-76
2023/09/22 13:04:13;;;;;;;;;;;;;;;14.41;74.39;98709.34;4974822;28;2654;-74
2023/09/22 13:07:05;;;;;;;;;;;;;;;14.27;75.12;98714.69;4997330;28;2214;-75
2023/09/22 13:09:57;;;;;;;;;;;;;;;14.21;75.02;98729.38;5000551;28;2037;-74
2023/09/22 13:12:48;;;;;;;;;;;;;;;14.18;75.10;98736.19;4970753;28;3495;-76
2023/09/22 13:15:40;;;;;;;;;;;;;;;14.17;74.98;98723.72;4986088;28;2360;-77
2023/09/22 13:18:32;;;;;;;;;;;;;;;14.17;75.14;98714.78;5002539;28;1754;-73
2023/09/22 13:21:25;;;;;;;;;;;;;;;14.16;75.01;98713.19;4998443;28;2036;-74
2023/09/22 13:24:16;;;;;;;;;;;;;;;14.15;75.05;98717.78;5001151;28;2210;-74
2023/09/22 13:27:08;;;;;;;;;;;;;;;14.15;75.13;98730.50;4997434;28;2091;-74
2023/09/22 13:30:00;;;;;;;;;;;;;;;14.16;75.25;98734.84;4995538;28;1744;-74
2023/09/22 13:32:52;;;;;;;;;;;;;;;14.15;75.19;98725.91;4995256;28;2168;-75
2023/09/22 13:35:43;;;;;;;;;;;;;;;14.15;75.27;98720.50;4995107;28;1887;-75
2023/09/22 13:38:36;;;;;;;;;;;;;;;14.16;75.28;98718.59;4994302;28;3160;-75
2023/09/22 13:41:27;;;;;;;;;;;;;;;14.16;75.46;98726.72;4996112;28;1977;-76
2023/09/22 13:44:19;;;;;;;;;;;;;;;14.16;75.41;98732.13;4995313;28;2140;-75
2023/09/22 13:47:11;;;;;;;;;;;;;;;14.16;75.34;98727.53;4995713;28;2044;-74
2023/09/22 13:50:03;;;;;;;;;;;;;;;14.15;75.47;98730.50;4997735;28;1700;-76
2023/09/22 13:52:55;;;;;;;;;;;;;;;14.16;75.28;98732.13;5001412;28;2190;-75
2023/09/22 13:55:47;;;;;;;;;;;;;;;14.17;75.35;98729.13;4993838;28;2119;-76
2023/09/22 13:58:39;;;;;;;;;;;;;;;14.18;75.48;98732.66;4987393;28;3550;-75
2023/09/22 14:01:31;;;;;;;;;;;;;;;14.18;75.31;98738.88;4986941;28;5096;-76
2023/09/22 14:04:23;;;;;;;;;;;;;;;14.19;75.25;98755.94;4995596;28;1945;-75
2023/09/22 14:07:15;;;;;;;;;;;;;;;14.19;75.31;98756.72;4998262;28;2695;-75
2023/09/22 14:10:08;;;;;;;;;;;;;;;14.20;75.49;98766.44;4983626;28;2381;-74
2023/09/22 14:13:00;;;;;;;;;;;;;;;14.20;75.38;98771.06;4992382;28;2498;-74
2023/09/22 14:15:51;;;;;;;;;;;;;;;14.20;75.52;98768.34;4985316;28;2203;-73
2023/09/22 14:18:43;;;;;;;;;;;;;;;14.21;75.37;98770.78;4993014;28;2724;-75
2023/09/22 14:21:35;;;;;;;;;;;;;;;14.21;75.37;98775.41;4992447;28;2358;-77
2023/09/22 14:24:27;;;;;;;;;;;;;;;14.21;75.41;98773.50;4999018;28;1634;-75
2023/09/22 14:27:20;;;;;;;;;;;;;;;14.22;75.40;98777.81;4987850;28;2137;-74
2023/09/22 14:30:12;;;;;;;;;;;;;;;14.23;75.42;98778.63;5004031;28;2426;-74
2023/09/22 14:33:04;;;;;;;;;;;;;;;14.24;75.37;98788.38;4999532;28;2521;-76
2023/09/22 14:35:56;;;;;;;;;;;;;;;14.24;75.37;98789.16;5005589;28;1898;-76
2023/09/22 14:38:48;;;;;;;;;;;;;;;14.25;75.43;98779.94;4998111;28;1294;-74
2023/09/22 14:41:40;;;;;;;;;;;;;;;14.25;75.52;98781.84;5000574;28;2233;-75
2023/09/22 14:44:32;;;;;;;;;;;;;;;14.25;75.62;98779.16;5003149;28;1551;-74
2023/09/22 14:47:24;;;;;;;;;;;;;;;14.26;75.57;98780.75;5002866;28;2395;-75
2023/09/22 14:50:18;;;;;;;;;;;;;;;14.27;75.60;98776.97;4998561;28;2651;-76
2023/09/22 14:53:10;;;;;;;;;;;;;;;14.28;75.56;98783.97;5003451;28;1086;-73
2023/09/22 14:56:03;;;;;;;;;;;;;;;14.29;75.63;98791.00;5007888;28;2171;-76
2023/09/22 14:58:54;;;;;;;;;;;;;;;14.28;75.68;98790.19;4995423;28;2424;-74
2023/09/22 15:01:46;;;;;;;;;;;;;;;14.30;75.85;98798.84;4989316;28;2400;-73
2023/09/22 15:04:38;;;;;;;;;;;;;;;14.31;75.66;98805.06;4998320;28;2680;-76
2023/09/22 15:07:31;;;;;;;;;;;;;;;14.32;75.81;98810.22;4982760;28;2665;-73